Aérodrome :
LOGIN :

S'inscrire | Disclaimer

   EN    FR    IT 

 










Légende :    VFR   VFR Marginal   IFR   IFR Intensif   IFR Très Intensif
Visi : 
Plafond : 
>= 8 km
>= 3000ft
5 à 8 km
1000 à 3000 ft
1500m à 5 km
500 à 1000 ft
800 à 1500m
200 à 500 ft
< 800m
< 200 ft
Symboles :   Orages  Brouillard  Fortes neiges  Fortes précipitations  Vent > 20 kt
SIGMETs :   Divers  Orages  Givrage  Turbulence  Onde Orograph.  Cendres Volcan.







- Altitude de l'aérodrome : 2540 ft
- Code IATA : HRM


DAFH - Hassi R'Mel

DERNIER METAR :
  • 201300Z 36007KT CAVOK 30/14 Q1020

METARs EXPIRÉS :
  • 201200Z 06008KT CAVOK 29/14 Q1020
  • 201100Z 09008KT CAVOK 28/14 Q1021

TAF TAF DAFH
Valide du 20 à 12h jusqu'au 20 à 21h UTC


201100Z 2012/2021 36008KT 9999 FEW030
PROB30
TEMPO 2013/2016 26015G30KT 3000 DRSA FEW040CB
PROB40
TEMPO 2014/2017 26015G30KT 3000 DRSA FEW033CB
Pas de NOTAMs connus pour ce terrain.
1 SIGMET publié pour la FIR Alger (DAAA) :
 
Orages noyés dans la masse
DAAA SIGMET 4 VALID 201300/201600 DAMM
DAAA ALGER FIR EMBD TS OBS E OF LINE N3419 E00619 - N3619 E00300 - N3801 E00519 - TOP FL380 MOV E 15KT NC=



MET'MAP, la Météo Aéronautique d'un coup d'oeil ! - Copyright ORBIFLY Décembre 2007 - Disclaimer

ORBIFLY MET'MAP TEAM :

Programmation & Développement : Alexandra Zaïnal
Conception & Développement : Baudouin d'Aumeries
Co-Programmation & Développement : Marc-Olivier Méhu
Soutien technique & logistique : Manuel Goepfert

Contact : metmap@orbifly.com




SOURCES & CREDITS :

   NOAA